Terminal Aerodrome Forecast
Issued by NWS

Home | Current Version | Previous Version | Text Only | Print | Product List | Glossary On
Versions: 1 2 3 4 5 6 7 8 9 10 11 12 13 14 15 16 17 18
097
FTUS46 KMTR 191741 CCA
TAFSTS
TAF COR
KSTS 191741Z 1918/2018 33006KT P6SM FEW250
     FM192100 30009KT P6SM SCT250
     FM200300 30006KT P6SM SCT250
     FM201000 VRB03KT P6SM FEW004 FEW250
      TEMPO 2012/2016 OVC002
     FM201700 27004KT P6SM SKC=

USA.gov is the U.S. government's official web portal to all federal, state and local government web resources and services.